• Join FlightAware (Why Join?)
  • Login
  • US Flag 
02:04PM EST


 

Airport Tracker/Info


-or-


 

Live Flight TrackerFlight Track Log ✈ ASH3770 ✈ 30-Jun-2013 ✈ KORD - KIND

Flight Track Log - Related Links

Times and Time Zones

All times are in EDT time to prevent confusion due to time zone crossing. See the ASH3770 flight status page for this flight to view local times or setup timezone preferences in your user account.

Time Position Orientation Groundspeed Altitude Reporting Facility
EDT Latitude Longitude Course Direction KTS MPH feet Rate Location/Type
02:55PM 41.9667 -87.8667 172° South 188 216 2,400  Level Chicago TRACON
02:56PM 41.9300 -87.8142 166° South 212 244 4,600 2,280 Climbing Chicago Center
02:57PM 41.8858 -87.8453 166° South  Level FlightAware Approximate
02:57PM 41.8550 -87.8044 174° South 273 314 6,900  Level Chicago Center
02:59PM 41.5306 -87.5753 153° Southeast  Level Estimated
02:59PM 41.6967 -87.7606 168° South 306 352 12,900  Level Chicago Center
03:00PM 41.4403 -87.5096 166° South  Level Estimated
03:00PM 41.6161 -87.7050 153° Southeast 329 379 14,300  Level Chicago Center
03:01PM 41.3638 -87.4542 172° South  Level Estimated
03:02PM 41.4164 -87.5722 153° Southeast 368 423 19,400  Level Chicago Center
03:04PM 41.3131 -87.5361 165° South 386 444 21,300 1,680 Climbing Chicago Center
03:05PM 41.2142 -87.4789 156° South 389 448 22,900 780 Climbing Chicago Center
03:06PM 41.1053 -87.4172 157° South 421 484 23,000  Climbing Chicago Center
03:07PM 40.9931 -87.3525 156° South 439 505 23,000  Level Chicago Center
03:08PM 40.8789 -87.2853 156° South 450 518 23,000 -540 Level Chicago Center
03:09PM 40.7406 -87.2061 157° South 454 522 22,000 -1,500 Descending Chicago Center
03:10PM 40.6306 -87.1436 157° South 436 502 20,000 -1,980 Descending Chicago Center
03:11PM 40.5322 -87.0878 157° South 419 482 18,000 -1,980 Descending Chicago Center
03:12PM 40.4275 -87.0264 156° South 414 476 16,000 -2,160 Descending Chicago Center
03:13PM 40.3006 -86.9564 157° South 413 475 13,600 -1,440 Descending Chicago Center
03:14PM 40.1986 -86.8981 156° South 401 461 13,100 -300 Descending Chicago Center
03:15PM 40.1161 -86.8056 139° Southeast 395 455 13,100 -540 Level Chicago Center
03:16PM 40.0436 -86.6997 132° Southeast 393 452 12,100 -1,260 Descending Chicago Center
03:17PM 39.9711 -86.5942 132° Southeast 389 448 10,600 -1,080 Descending Indianapolis Center
03:18PM 39.9069 -86.5025 132° Southeast 352 405 10,000 -1,020 Descending Indianapolis Center
03:19PM 39.8411 -86.4656 157° South 300 345 8,500 -1,800 Descending Indianapolis Center
03:20PM 39.7567 -86.5144 204° Southwest 287 330 6,400 -1,860 Descending Indianapolis Center
03:21PM 39.6931 -86.5694 214° Southwest 280 322 4,700 -1,620 Descending Indianapolis Center
03:22PM 39.6236 -86.6025 200° South 275 316 3,100 -840 Descending Indianapolis Center
03:23PM 39.5614 -86.5728 160° South 254 292 3,100  Level Indianapolis Center
03:24PM 39.5339 -86.5264 128° Southeast 217 250 3,100  Level Indianapolis Center
03:25PM 39.5747 -86.4886 35° Northeast 192 221 3,100 -60 Level Indianapolis Center
03:26PM 39.6181 -86.4336 44° Northeast 185 213 3,000 -120 Descending Indianapolis Center